createdAt,value
2023-03-04T00:01:07.334Z,44.30
2023-03-04T00:03:34.634Z,47.40
2023-03-04T00:06:01.767Z,45.50
2023-03-04T00:08:29.052Z,43.63
2023-03-04T00:10:56.355Z,44.25
2023-03-04T00:13:24.593Z,43.97
2023-03-04T00:15:51.956Z,46.97
2023-03-04T00:18:21.632Z,49.85
2023-03-04T00:20:49.794Z,52.20
2023-03-04T00:23:17.658Z,53.65
2023-03-04T00:25:44.992Z,50.08
2023-03-04T00:28:12.271Z,49.53
2023-03-04T00:30:39.401Z,48.25
2023-03-04T00:33:06.698Z,50.85
2023-03-04T00:35:33.892Z,53.78
2023-03-04T00:38:01.235Z,52.55
2023-03-04T00:40:28.753Z,55.40
2023-03-04T00:42:56.027Z,53.15
2023-03-04T00:45:23.188Z,52.45
2023-03-04T00:47:50.558Z,47.35
2023-03-04T00:50:17.910Z,47.80
2023-03-04T00:52:45.220Z,47.58
2023-03-04T00:55:12.627Z,51.35
2023-03-04T00:57:40.056Z,49.50
2023-03-04T01:00:07.961Z,50.00
2023-03-04T01:02:35.447Z,51.25
2023-03-04T01:05:02.803Z,47.83
2023-03-04T01:07:30.058Z,45.72
2023-03-04T01:09:57.462Z,49.83
2023-03-04T01:12:25.294Z,55.25
2023-03-04T01:14:52.429Z,52.72
2023-03-04T01:17:20.078Z,46.38
2023-03-04T01:19:48.789Z,53.70
2023-03-04T01:22:17.023Z,55.67
2023-03-04T01:24:44.198Z,50.67
2023-03-04T01:27:11.729Z,51.15
2023-03-04T01:29:38.928Z,48.13
2023-03-04T01:32:06.383Z,48.53
2023-03-04T01:34:33.671Z,48.65
2023-03-04T01:37:00.871Z,48.78
2023-03-04T01:39:28.150Z,46.78
2023-03-04T01:41:55.580Z,48.03
2023-03-04T01:44:22.841Z,47.97
2023-03-04T01:46:53.924Z,49.92
2023-03-04T01:49:21.854Z,48.47
2023-03-04T01:51:53.781Z,47.33
2023-03-04T01:54:23.091Z,51.75
2023-03-04T01:56:52.455Z,48.78
2023-03-04T01:59:21.311Z,45.60
2023-03-04T02:01:52.572Z,48.13
2023-03-04T02:04:23.547Z,46.22
2023-03-04T02:06:52.172Z,55.17
2023-03-04T02:09:20.232Z,51.78
2023-03-04T02:11:49.262Z,51.00
2023-03-04T02:14:17.491Z,53.90
2023-03-04T02:16:44.952Z,55.45
2023-03-04T02:19:16.652Z,54.30
2023-03-04T02:21:43.982Z,52.83
2023-03-04T02:24:17.452Z,50.78
2023-03-04T02:26:47.134Z,50.35
2023-03-04T02:29:17.418Z,50.05
2023-03-04T02:31:48.793Z,54.28
2023-03-04T02:34:20.060Z,47.42
2023-03-04T02:36:49.154Z,53.50
2023-03-04T02:39:19.815Z,54.92
2023-03-04T02:41:49.052Z,53.33
2023-03-04T02:44:21.925Z,58.03
2023-03-04T02:46:50.962Z,57.08
2023-03-04T02:49:19.299Z,56.05
2023-03-04T02:51:46.764Z,61.83
2023-03-04T02:54:17.225Z,58.88
2023-03-04T02:56:47.008Z,61.17
2023-03-04T02:59:15.436Z,58.60
2023-03-04T03:01:43.499Z,58.15
2023-03-04T03:04:11.846Z,59.15
2023-03-04T03:06:39.847Z,57.63
2023-03-04T03:09:07.445Z,53.47
2023-03-04T03:11:35.360Z,63.42
2023-03-04T03:14:04.478Z,59.45
2023-03-04T03:16:32.010Z,57.58
2023-03-04T03:18:59.236Z,60.97
2023-03-04T03:21:26.735Z,58.92
2023-03-04T03:23:53.944Z,57.03
2023-03-04T03:26:21.323Z,52.22
2023-03-04T03:28:48.593Z,52.28
2023-03-04T03:31:15.945Z,49.47
2023-03-04T03:33:47.394Z,51.40
2023-03-04T03:36:14.899Z,59.13
2023-03-04T03:38:42.073Z,54.47
2023-03-04T03:41:09.356Z,50.83
2023-03-04T03:43:36.661Z,57.60
2023-03-04T03:46:04.082Z,56.55
2023-03-04T03:48:31.201Z,56.50
2023-03-04T03:50:58.531Z,61.15
2023-03-04T03:53:25.792Z,65.93
2023-03-04T03:55:53.022Z,61.42
2023-03-04T03:58:20.260Z,65.88
2023-03-04T04:00:47.579Z,64.28
2023-03-04T04:03:16.110Z,61.95
2023-03-04T04:05:43.553Z,64.78
2023-03-04T04:08:14.504Z,63.67
2023-03-04T04:10:42.244Z,66.15
2023-03-04T04:13:10.019Z,56.25
2023-03-04T04:15:38.771Z,56.67
2023-03-04T04:18:06.998Z,62.80
2023-03-04T04:20:34.864Z,58.60
2023-03-04T04:23:02.823Z,58.38
2023-03-04T04:25:30.147Z,53.10
2023-03-04T04:27:57.400Z,57.22
2023-03-04T04:30:24.854Z,53.47
2023-03-04T04:32:52.313Z,52.10
2023-03-04T04:35:20.008Z,57.03
2023-03-04T04:37:47.190Z,54.97
2023-03-04T04:40:14.718Z,60.53
2023-03-04T04:42:41.979Z,55.42
2023-03-04T04:45:09.722Z,55.97
2023-03-04T04:47:36.930Z,52.63
2023-03-04T04:50:04.873Z,62.75
2023-03-04T04:52:32.270Z,54.25
2023-03-04T04:54:59.467Z,49.03
2023-03-04T04:57:26.685Z,50.60
2023-03-04T04:59:54.724Z,53.08
2023-03-04T05:02:21.962Z,51.72
2023-03-04T05:04:49.282Z,61.50
2023-03-04T05:07:16.502Z,58.60
2023-03-04T05:09:43.927Z,59.72
2023-03-04T05:12:11.176Z,55.25
2023-03-04T05:14:38.534Z,56.17
2023-03-04T05:17:05.736Z,62.47
2023-03-04T05:19:33.050Z,56.40
2023-03-04T05:22:00.265Z,57.40
2023-03-04T05:24:27.616Z,54.85
2023-03-04T05:26:54.845Z,57.33
2023-03-04T05:29:22.492Z,54.88
2023-03-04T05:31:49.723Z,56.90
2023-03-04T05:34:17.140Z,57.33
2023-03-04T05:36:44.388Z,54.90
2023-03-04T05:39:12.112Z,54.58
2023-03-04T05:41:39.300Z,52.63
2023-03-04T05:44:06.698Z,55.38
2023-03-04T05:46:34.081Z,56.28
2023-03-04T05:49:01.434Z,52.83
2023-03-04T05:51:28.727Z,55.17
2023-03-04T05:53:56.004Z,56.28
2023-03-04T05:56:23.154Z,59.45
2023-03-04T05:58:50.549Z,53.67
2023-03-04T06:01:18.222Z,56.75
2023-03-04T06:03:48.564Z,56.97
2023-03-04T06:06:16.170Z,54.53
2023-03-04T06:08:43.575Z,56.92
2023-03-04T06:11:10.798Z,57.78
2023-03-04T06:13:38.429Z,56.15
2023-03-04T06:16:05.942Z,56.50
2023-03-04T06:18:33.266Z,57.42
2023-03-04T06:21:03.207Z,55.10
2023-03-04T06:23:31.331Z,54.22
2023-03-04T06:26:00.020Z,52.80
2023-03-04T06:28:28.059Z,54.63
2023-03-04T06:30:56.994Z,57.60
2023-03-04T06:33:24.454Z,53.25
2023-03-04T06:35:55.813Z,50.50
2023-03-04T06:38:23.558Z,53.10
2023-03-04T06:40:50.737Z,55.45
2023-03-04T06:43:18.715Z,51.25
2023-03-04T06:45:46.006Z,49.65
2023-03-04T06:48:13.552Z,49.03
2023-03-04T06:50:41.559Z,48.10
2023-03-04T06:53:08.855Z,49.90
2023-03-04T06:55:36.050Z,45.90
2023-03-04T06:58:03.449Z,50.90
2023-03-04T07:00:30.683Z,48.72
2023-03-04T07:02:59.074Z,48.15
2023-03-04T07:05:26.742Z,47.85
2023-03-04T07:07:53.954Z,44.92
2023-03-04T07:10:21.416Z,44.45
2023-03-04T07:12:48.852Z,47.35
2023-03-04T07:15:15.988Z,46.00
2023-03-04T07:17:43.259Z,46.17
2023-03-04T07:20:11.248Z,44.33
2023-03-04T07:22:38.441Z,45.35
2023-03-04T07:25:06.500Z,46.33
2023-03-04T07:27:33.771Z,46.38
2023-03-04T07:30:00.933Z,44.30
2023-03-04T07:32:28.250Z,44.05
2023-03-04T07:34:55.487Z,42.97
2023-03-04T07:37:22.819Z,43.70
2023-03-04T07:39:49.929Z,40.85
2023-03-04T07:42:17.251Z,40.75
2023-03-04T07:44:53.330Z,42.40
2023-03-04T07:47:20.640Z,41.67
2023-03-04T07:49:47.792Z,41.15
2023-03-04T07:52:15.169Z,40.92
2023-03-04T07:54:42.361Z,44.40
2023-03-04T07:57:09.747Z,41.47
2023-03-04T07:59:37.081Z,43.72
2023-03-04T08:02:04.381Z,42.60
2023-03-04T08:04:31.586Z,41.45
2023-03-04T08:06:58.841Z,42.17
2023-03-04T08:09:26.179Z,41.60
2023-03-04T08:11:53.401Z,40.83
2023-03-04T08:14:20.578Z,38.97
2023-03-04T08:16:47.876Z,39.03
2023-03-04T08:19:15.018Z,42.50
2023-03-04T08:21:42.236Z,40.97
2023-03-04T08:24:11.512Z,38.08
2023-03-04T08:26:42.971Z,40.67
2023-03-04T08:29:14.060Z,40.50
2023-03-04T08:31:41.596Z,39.10
2023-03-04T08:34:10.662Z,41.80
2023-03-04T08:36:38.103Z,39.53
2023-03-04T08:39:05.886Z,42.70
2023-03-04T08:41:33.282Z,43.33
2023-03-04T08:44:01.705Z,42.20
2023-03-04T08:46:29.542Z,39.63
2023-03-04T08:48:57.152Z,43.30
2023-03-04T08:51:25.196Z,41.03
2023-03-04T08:53:52.938Z,43.28
2023-03-04T08:56:20.357Z,41.03
2023-03-04T08:58:47.646Z,42.88
2023-03-04T09:01:15.570Z,41.78
2023-03-04T09:03:43.231Z,42.45
2023-03-04T09:06:14.666Z,41.90
2023-03-04T09:08:42.082Z,41.05
2023-03-04T09:11:09.699Z,42.22
2023-03-04T09:13:37.449Z,41.85
2023-03-04T09:16:11.231Z,40.85
2023-03-04T09:21:08.690Z,42.67
2023-03-04T09:23:36.883Z,42.05
2023-03-04T09:26:16.642Z,41.10
2023-03-04T09:28:44.057Z,41.28
2023-03-04T09:31:12.919Z,40.67
2023-03-04T09:33:43.188Z,40.83
2023-03-04T09:36:12.729Z,41.47
2023-03-04T09:38:41.427Z,43.05
2023-03-04T09:41:13.611Z,43.53
2023-03-04T09:43:41.458Z,40.90
2023-03-04T09:46:14.113Z,40.67
2023-03-04T09:48:57.027Z,42.15
2023-03-04T09:51:27.248Z,40.22
2023-03-04T09:54:15.469Z,41.42
2023-03-04T09:56:42.795Z,40.78
2023-03-04T09:59:15.355Z,40.08
2023-03-04T10:01:46.182Z,41.10
2023-03-04T10:04:17.346Z,40.45
2023-03-04T10:06:51.837Z,40.47
2023-03-04T10:09:26.396Z,41.08
2023-03-04T10:12:02.135Z,38.85
2023-03-04T10:14:48.226Z,40.35
2023-03-04T10:17:19.971Z,40.45
2023-03-04T10:19:57.334Z,41.25
2023-03-04T10:22:44.133Z,38.78
2023-03-04T10:25:18.994Z,40.53
2023-03-04T10:27:51.045Z,40.80
2023-03-04T10:30:27.080Z,41.42
2023-03-04T10:32:56.150Z,41.08
2023-03-04T10:35:31.438Z,41.20
2023-03-04T10:38:03.870Z,41.35
2023-03-04T10:40:38.944Z,39.05
2023-03-04T10:43:08.319Z,40.40
2023-03-04T10:45:39.282Z,41.58
2023-03-04T10:48:07.613Z,42.17
2023-03-04T10:50:34.872Z,37.55
2023-03-04T10:53:02.160Z,40.30
2023-03-04T10:55:42.370Z,39.65
2023-03-04T10:58:16.228Z,40.17
2023-03-04T11:03:14.126Z,40.15
2023-03-04T11:05:41.346Z,41.28
2023-03-04T11:08:19.708Z,39.65
2023-03-04T11:10:50.052Z,37.92
2023-03-04T11:13:21.263Z,41.22
2023-03-04T11:15:55.555Z,39.20
2023-03-04T11:18:39.284Z,39.33
2023-03-04T11:21:08.198Z,39.58
2023-03-04T11:23:41.221Z,39.80
2023-03-04T11:26:16.594Z,40.22
2023-03-04T11:28:49.911Z,38.88
2023-03-04T11:31:23.282Z,39.00
2023-03-04T11:33:56.462Z,40.13
2023-03-04T11:36:45.112Z,39.67
2023-03-04T11:39:22.263Z,40.00
2023-03-04T11:41:55.178Z,42.30
2023-03-04T11:44:22.654Z,39.75
2023-03-04T11:46:51.786Z,40.38
2023-03-04T11:49:28.653Z,39.30
2023-03-04T11:52:28.817Z,40.33
2023-03-04T11:55:17.436Z,39.47
2023-03-04T11:57:55.269Z,40.45
2023-03-04T12:00:47.229Z,40.00
2023-03-04T12:03:26.078Z,40.00
2023-03-04T12:05:56.788Z,42.95
2023-03-04T12:08:39.423Z,41.20
2023-03-04T12:11:21.171Z,42.30
2023-03-04T12:14:00.930Z,41.35
2023-03-04T12:16:31.240Z,41.45
2023-03-04T12:19:10.418Z,41.08
2023-03-04T12:21:50.910Z,41.72
2023-03-04T12:24:39.234Z,38.08
2023-03-04T12:27:09.514Z,39.03
2023-03-04T12:29:39.669Z,41.33
2023-03-04T12:32:33.020Z,41.25
2023-03-04T12:35:10.167Z,39.25
2023-03-04T12:37:49.060Z,39.33
2023-03-04T12:40:25.498Z,38.80
2023-03-04T12:42:56.328Z,38.22
2023-03-04T12:45:28.510Z,37.58
2023-03-04T12:48:04.757Z,39.33
2023-03-04T12:50:43.163Z,37.85
2023-03-04T12:53:25.879Z,39.60
2023-03-04T12:55:55.526Z,36.08
2023-03-04T12:58:26.608Z,38.15
2023-03-04T13:01:01.800Z,36.45
2023-03-04T13:03:42.626Z,35.45
2023-03-04T13:06:23.908Z,35.33
2023-03-04T13:08:59.967Z,37.00
2023-03-04T13:11:42.425Z,35.38
2023-03-04T13:14:30.677Z,36.08
2023-03-04T13:17:01.985Z,34.67
2023-03-04T13:19:32.129Z,33.28
2023-03-04T13:21:59.525Z,35.78
2023-03-04T13:24:29.745Z,33.80
2023-03-04T13:26:57.014Z,33.38
2023-03-04T13:29:38.367Z,33.35
2023-03-04T13:32:11.595Z,36.65
2023-03-04T13:34:42.186Z,33.72
2023-03-04T13:37:12.507Z,31.67
2023-03-04T13:39:39.794Z,32.85
2023-03-04T13:42:28.475Z,33.00
2023-03-04T13:44:58.852Z,32.78
2023-03-04T13:47:33.580Z,32.28
2023-03-04T13:50:03.787Z,32.88
2023-03-04T13:52:34.206Z,32.30
2023-03-04T13:55:04.523Z,30.70
2023-03-04T13:57:31.724Z,31.58
2023-03-04T13:59:59.414Z,31.50
2023-03-04T14:02:27.353Z,30.23
2023-03-04T14:05:00.527Z,29.58
2023-03-04T14:07:31.064Z,29.73
2023-03-04T14:10:05.289Z,29.67
2023-03-04T14:12:35.825Z,29.00
2023-03-04T14:15:21.149Z,29.55
2023-03-04T14:17:53.064Z,29.40
2023-03-04T14:20:24.684Z,30.25
2023-03-04T14:22:52.298Z,27.95
2023-03-04T14:25:24.436Z,29.48
2023-03-04T14:28:04.435Z,27.85
2023-03-04T14:30:42.319Z,27.70
2023-03-04T14:33:17.814Z,27.88
2023-03-04T14:35:48.984Z,27.15
2023-03-04T14:38:23.316Z,25.25
2023-03-04T14:40:56.014Z,25.67
2023-03-04T14:43:24.148Z,27.38
2023-03-04T14:45:54.619Z,28.05
2023-03-04T14:48:32.241Z,27.92
2023-03-04T14:51:02.238Z,28.70
2023-03-04T14:53:32.448Z,27.83
2023-03-04T14:56:07.192Z,26.98
2023-03-04T14:58:37.680Z,27.38
2023-03-04T15:01:08.442Z,26.33
2023-03-04T15:03:36.202Z,26.63
2023-03-04T15:06:06.610Z,27.27
2023-03-04T15:08:38.718Z,27.23
2023-03-04T15:11:07.753Z,28.88
2023-03-04T15:13:38.532Z,27.25
2023-03-04T15:16:10.475Z,27.75
2023-03-04T15:18:37.810Z,26.58
2023-03-04T15:21:08.863Z,27.77
2023-03-04T15:23:36.152Z,26.83
2023-03-04T15:26:06.020Z,27.55
2023-03-04T15:28:37.029Z,26.38
2023-03-04T15:31:06.205Z,26.67
2023-03-04T15:33:34.257Z,27.30
2023-03-04T15:36:03.218Z,27.13
2023-03-04T15:38:30.619Z,27.45
2023-03-04T15:40:59.863Z,27.80
2023-03-04T15:43:27.386Z,25.15
2023-03-04T15:45:54.895Z,26.08
2023-03-04T15:48:22.374Z,27.90
2023-03-04T15:50:52.091Z,28.05
2023-03-04T15:53:22.665Z,26.10
2023-03-04T15:55:50.112Z,25.73
2023-03-04T15:58:17.908Z,26.25
2023-03-04T16:00:45.237Z,26.42
2023-03-04T16:03:16.584Z,27.88
2023-03-04T16:05:45.529Z,25.77
2023-03-04T16:08:16.788Z,27.58
2023-03-04T16:10:45.538Z,28.08
2023-03-04T16:13:16.350Z,28.83
2023-03-04T16:15:43.902Z,27.73
2023-03-04T16:18:12.649Z,28.02
2023-03-04T16:20:43.421Z,29.17
2023-03-04T16:23:14.698Z,29.55
2023-03-04T16:25:45.183Z,29.27
2023-03-04T16:28:13.564Z,29.13
2023-03-04T16:30:41.764Z,29.05
2023-03-04T16:33:11.521Z,28.65
2023-03-04T16:35:40.027Z,29.60
2023-03-04T16:38:20.379Z,30.40
2023-03-04T16:40:47.821Z,29.92
2023-03-04T16:43:15.062Z,30.25
2023-03-04T16:45:42.563Z,27.30
2023-03-04T16:48:10.228Z,29.17
2023-03-04T16:50:38.729Z,28.88
2023-03-04T16:53:11.219Z,30.10
2023-03-04T16:55:38.411Z,29.65
2023-03-04T16:58:08.265Z,30.20
2023-03-04T17:00:35.728Z,27.95
2023-03-04T17:03:03.966Z,28.88
2023-03-04T17:05:33.726Z,30.48
2023-03-04T17:08:00.999Z,29.35
2023-03-04T17:10:28.378Z,28.13
2023-03-04T17:12:55.540Z,29.48
2023-03-04T17:15:22.894Z,29.35
2023-03-04T17:17:52.273Z,30.48
2023-03-04T17:20:19.867Z,27.38
2023-03-04T17:22:47.242Z,30.50
2023-03-04T17:25:15.669Z,30.02
2023-03-04T17:27:43.202Z,30.85
2023-03-04T17:30:12.637Z,30.08
2023-03-04T17:32:40.587Z,29.75
2023-03-04T17:35:09.227Z,30.17
2023-03-04T17:37:37.747Z,32.40
2023-03-04T17:40:07.080Z,31.27
2023-03-04T17:42:34.828Z,32.22
2023-03-04T17:45:02.081Z,30.98
2023-03-04T17:47:29.255Z,31.65
2023-03-04T17:49:56.616Z,32.17
2023-03-04T17:52:23.807Z,29.35
2023-03-04T17:54:51.002Z,34.25
2023-03-04T17:57:18.157Z,32.00
2023-03-04T17:59:45.530Z,31.23
2023-03-04T18:02:16.043Z,32.22
2023-03-04T18:04:46.436Z,33.53
2023-03-04T18:07:13.593Z,32.85
2023-03-04T18:09:40.893Z,34.15
2023-03-04T18:12:08.452Z,33.70
2023-03-04T18:14:35.728Z,31.05
2023-03-04T18:17:03.026Z,31.48
2023-03-04T18:19:30.375Z,32.67
2023-03-04T18:21:57.549Z,34.10
2023-03-04T18:24:24.717Z,33.30
2023-03-04T18:26:52.438Z,34.30
2023-03-04T18:29:19.718Z,32.60
2023-03-04T18:31:46.954Z,35.10
2023-03-04T18:34:14.319Z,34.35
2023-03-04T18:36:41.411Z,34.00
2023-03-04T18:39:09.433Z,33.35
2023-03-04T18:41:36.718Z,34.00
2023-03-04T18:44:05.079Z,34.75
2023-03-04T18:46:40.573Z,34.08
2023-03-04T18:49:09.020Z,33.83
2023-03-04T18:51:36.227Z,35.95
2023-03-04T18:54:03.805Z,33.60
2023-03-04T18:56:38.628Z,35.95
2023-03-04T18:59:11.862Z,34.67
2023-03-04T19:01:39.213Z,35.25
2023-03-04T19:04:06.898Z,35.35
2023-03-04T19:06:34.763Z,35.53
2023-03-04T19:09:02.193Z,35.28
2023-03-04T19:11:31.635Z,36.28
2023-03-04T19:13:58.983Z,37.13
2023-03-04T19:16:26.387Z,36.47
2023-03-04T19:18:53.752Z,36.15
2023-03-04T19:21:21.081Z,36.33
2023-03-04T19:23:48.224Z,37.45
2023-03-04T19:26:15.593Z,36.10
2023-03-04T19:28:43.152Z,35.00
2023-03-04T19:31:11.715Z,35.97
2023-03-04T19:33:40.085Z,35.45
2023-03-04T19:36:08.625Z,35.75
2023-03-04T19:38:36.133Z,35.47
2023-03-04T19:41:12.221Z,36.97
2023-03-04T19:43:39.650Z,37.97
2023-03-04T19:46:08.712Z,35.78
2023-03-04T19:48:37.697Z,35.83
2023-03-04T19:51:14.736Z,36.10
2023-03-04T19:53:42.472Z,38.00
2023-03-04T19:56:10.323Z,38.70
2023-03-04T19:58:37.675Z,38.42
2023-03-04T20:01:05.242Z,37.53
2023-03-04T20:03:32.856Z,41.08
2023-03-04T20:06:02.690Z,39.75
2023-03-04T20:08:30.033Z,39.28
2023-03-04T20:10:57.221Z,39.35
2023-03-04T20:13:24.449Z,38.17
2023-03-04T20:15:51.955Z,37.83
2023-03-04T20:18:19.180Z,38.53
2023-03-04T20:20:46.318Z,38.45
2023-03-04T20:23:13.653Z,38.70
2023-03-04T20:25:40.838Z,38.53
2023-03-04T20:28:08.060Z,39.45
2023-03-04T20:30:35.287Z,40.00
2023-03-04T20:33:02.538Z,39.45
2023-03-04T20:35:29.777Z,41.60
2023-03-04T20:37:57.137Z,38.50
2023-03-04T20:40:24.246Z,41.03
2023-03-04T20:42:51.454Z,40.60
2023-03-04T20:45:20.355Z,40.33
2023-03-04T20:47:50.009Z,41.83
2023-03-04T20:50:17.909Z,41.80
2023-03-04T20:52:46.207Z,40.95
2023-03-04T20:55:13.598Z,40.83
2023-03-04T20:57:41.355Z,40.85
2023-03-04T21:00:09.408Z,40.88
2023-03-04T21:02:36.843Z,40.67
2023-03-04T21:05:04.575Z,42.63
2023-03-04T21:07:31.959Z,40.67
2023-03-04T21:09:59.297Z,38.47
2023-03-04T21:12:26.889Z,39.70
2023-03-04T21:14:54.212Z,39.90
2023-03-04T21:17:21.820Z,43.42
2023-03-04T21:19:49.148Z,40.72
2023-03-04T21:22:19.065Z,40.95
2023-03-04T21:24:48.206Z,41.28
2023-03-04T21:27:17.086Z,40.72
2023-03-04T21:29:44.771Z,41.88
2023-03-04T21:32:24.217Z,40.22
2023-03-04T21:34:53.305Z,41.33
2023-03-04T21:37:22.096Z,40.08
2023-03-04T21:39:49.596Z,41.10
2023-03-04T21:42:17.192Z,40.28
2023-03-04T21:44:49.608Z,40.17
2023-03-04T21:47:18.147Z,41.28
2023-03-04T21:49:45.773Z,40.45
2023-03-04T21:52:13.297Z,40.15
2023-03-04T21:54:40.712Z,40.70
2023-03-04T21:57:08.275Z,40.10
2023-03-04T21:59:35.728Z,40.42
2023-03-04T22:02:03.169Z,39.33
2023-03-04T22:04:30.653Z,37.17
2023-03-04T22:06:58.021Z,38.65
2023-03-04T22:09:25.552Z,38.50
2023-03-04T22:11:53.054Z,39.35
2023-03-04T22:14:20.405Z,36.38
2023-03-04T22:16:55.208Z,37.40
2023-03-04T22:19:25.593Z,36.70
2023-03-04T22:21:53.211Z,37.47
2023-03-04T22:24:20.726Z,36.85
2023-03-04T22:26:48.358Z,37.70
2023-03-04T22:29:15.815Z,36.85
2023-03-04T22:31:43.223Z,34.88
2023-03-04T22:34:13.943Z,36.83
2023-03-04T22:36:44.499Z,34.53
2023-03-04T22:39:15.635Z,36.10
2023-03-04T22:41:42.989Z,36.33
2023-03-04T22:44:10.347Z,35.30
2023-03-04T22:46:39.389Z,35.95
2023-03-04T22:49:10.327Z,36.28
2023-03-04T22:51:38.734Z,35.40
2023-03-04T22:54:06.156Z,34.47
2023-03-04T22:56:34.257Z,33.83
2023-03-04T22:59:01.564Z,32.65
2023-03-04T23:01:29.166Z,33.58
2023-03-04T23:03:56.557Z,32.25
2023-03-04T23:06:27.824Z,32.00
2023-03-04T23:08:57.423Z,33.85
2023-03-04T23:11:28.746Z,33.95
2023-03-04T23:13:56.952Z,31.83
2023-03-04T23:16:28.049Z,32.08
2023-03-04T23:18:57.125Z,32.40
2023-03-04T23:21:28.352Z,31.60
2023-03-04T23:23:56.160Z,32.38
2023-03-04T23:26:27.146Z,33.05
2023-03-04T23:28:57.286Z,33.40
2023-03-04T23:31:25.898Z,31.85
2023-03-04T23:33:57.575Z,31.88
2023-03-04T23:36:28.403Z,32.50
2023-03-04T23:38:57.067Z,31.67
2023-03-04T23:41:27.315Z,28.98
2023-03-04T23:43:57.504Z,29.95
2023-03-04T23:46:25.948Z,30.25
2023-03-04T23:48:54.152Z,30.95
2023-03-04T23:51:24.383Z,32.13
2023-03-04T23:53:52.166Z,31.70
2023-03-04T23:56:24.292Z,29.88
2023-03-04T23:58:52.387Z,29.58
